Time;durP1;ratioP1;P1;durP2;ratioP2;P2;SDS_P1;SDS_P2;PMS_P1;PMS_P2;Temp;Humidity;BMP_temperature;BMP_pressure;BME280_temperature;BME280_humidity;BME280_pressure;Samples;Min_cycle;Max_cycle;Signal;HPM_P1;HPM_P2
2021/11/23 00:01:53;;;;;;;41.25;20.23;;;9.60;88.40;;;;;;5041229;28;20226;-74
2021/11/23 00:04:19;;;;;;;36.20;20.37;;;9.60;88.40;;;;;;5045741;28;21012;-73
2021/11/23 00:06:45;;;;;;;38.15;18.15;;;9.70;88.90;;;;;;5044077;28;20176;-74
2021/11/23 00:09:10;;;;;;;37.37;19.43;;;9.70;89.10;;;;;;5044999;28;21002;-73
2021/11/23 00:11:36;;;;;;;35.67;18.33;;;9.60;89.50;;;;;;5044195;28;20209;-74
2021/11/23 00:14:02;;;;;;;44.60;21.47;;;9.60;89.20;;;;;;5048059;28;20195;-74
2021/11/23 00:16:27;;;;;;;34.63;20.40;;;9.70;89.00;;;;;;5044166;28;20179;-74
2021/11/23 00:18:53;;;;;;;39.67;21.55;;;9.70;89.20;;;;;;5044930;28;20180;-74
2021/11/23 00:21:19;;;;;;;44.97;22.00;;;9.70;89.10;;;;;;5042652;28;20230;-74
2021/11/23 00:23:45;;;;;;;42.03;21.80;;;9.70;89.10;;;;;;5044251;28;20306;-74
2021/11/23 00:26:10;;;;;;;34.03;18.73;;;9.70;89.30;;;;;;5043578;28;20175;-74
2021/11/23 00:28:36;;;;;;;39.88;21.40;;;9.60;89.60;;;;;;5045242;28;20191;-74
2021/11/23 00:31:02;;;;;;;48.60;22.57;;;9.60;89.70;;;;;;5043740;28;20543;-73
2021/11/23 00:33:31;;;;;;;53.03;23.00;;;9.60;89.90;;;;;;5042491;28;20670;-73
2021/11/23 00:35:57;;;;;;;37.00;20.17;;;9.50;89.90;;;;;;5043631;28;20210;-73
2021/11/23 00:38:23;;;;;;;34.25;18.98;;;9.50;89.80;;;;;;5042786;28;20917;-74
2021/11/23 00:40:49;;;;;;;41.43;20.87;;;9.50;89.60;;;;;;5044146;28;20184;-73
2021/11/23 00:43:15;;;;;;;30.58;17.60;;;9.50;90.30;;;;;;5044660;28;20270;-74
2021/11/23 00:45:41;;;;;;;33.03;17.67;;;9.50;90.40;;;;;;5044533;28;20184;-73
2021/11/23 00:48:08;;;;;;;26.87;16.03;;;9.50;90.30;;;;;;5043453;28;20180;-74
2021/11/23 00:50:35;;;;;;;27.85;16.33;;;9.50;90.60;;;;;;5043542;28;20673;-74
2021/11/23 00:53:01;;;;;;;37.83;15.80;;;9.50;90.60;;;;;;5046535;28;20187;-74
2021/11/23 00:55:28;;;;;;;27.60;14.60;;;9.50;90.70;;;;;;5046573;28;20539;-73
2021/11/23 00:57:54;;;;;;;31.70;16.77;;;9.50;90.80;;;;;;5048303;28;20263;-73
2021/11/23 01:00:21;;;;;;;28.27;14.60;;;9.50;91.80;;;;;;5046138;28;20266;-74
2021/11/23 01:02:46;;;;;;;24.27;13.90;;;9.50;91.60;;;;;;5047697;28;20208;-74
2021/11/23 01:05:12;;;;;;;26.57;14.03;;;9.50;91.10;;;;;;5049008;28;20211;-74
2021/11/23 01:07:38;;;;;;;32.90;18.63;;;9.60;91.60;;;;;;5046852;28;20188;-73
2021/11/23 01:10:05;;;;;;;21.40;14.07;;;9.50;92.40;;;;;;5046877;28;20199;-74
2021/11/23 01:12:31;;;;;;;26.70;14.23;;;9.50;92.90;;;;;;5047425;28;20191;-74
2021/11/23 01:14:57;;;;;;;29.07;13.83;;;9.50;92.70;;;;;;5046134;28;20179;-73
2021/11/23 01:17:23;;;;;;;24.90;13.60;;;9.50;92.10;;;;;;5047220;28;20254;-73
2021/11/23 01:19:49;;;;;;;25.23;15.17;;;9.50;91.80;;;;;;5045625;28;20203;-73
2021/11/23 01:22:14;;;;;;;24.93;15.00;;;9.40;92.40;;;;;;5047787;28;20215;-73
2021/11/23 01:24:40;;;;;;;27.20;17.33;;;9.40;92.80;;;;;;5047228;28;20180;-73
2021/11/23 01:27:06;;;;;;;24.88;15.10;;;9.40;92.90;;;;;;5046288;28;20180;-73
2021/11/23 01:29:32;;;;;;;24.40;12.80;;;9.40;92.90;;;;;;5046064;28;20211;-74
2021/11/23 01:31:58;;;;;;;20.23;13.43;;;9.40;93.10;;;;;;5046708;28;20241;-73
2021/11/23 01:34:23;;;;;;;25.98;13.32;;;9.40;93.10;;;;;;5047301;28;20196;-72
2021/11/23 01:36:50;;;;;;;33.75;13.88;;;9.40;92.80;;;;;;5046962;28;20641;-72
2021/11/23 01:39:17;;;;;;;20.17;12.83;;;9.40;92.60;;;;;;5045077;28;20183;-73
2021/11/23 01:41:43;;;;;;;19.30;12.47;;;9.40;92.60;;;;;;5047888;28;20207;-73
2021/11/23 01:44:09;;;;;;;19.67;12.47;;;9.40;92.70;;;;;;5045489;28;20184;-74
2021/11/23 01:46:36;;;;;;;22.27;10.53;;;9.40;92.70;;;;;;5046841;28;20199;-72
2021/11/23 01:49:02;;;;;;;21.20;12.13;;;9.40;92.80;;;;;;5045995;28;20203;-73
2021/11/23 01:51:28;;;;;;;20.83;12.40;;;9.40;92.50;;;;;;5046926;28;20678;-73
2021/11/23 01:53:54;;;;;;;22.03;13.03;;;9.40;92.70;;;;;;5045639;28;20243;-73
2021/11/23 01:56:22;;;;;;;26.92;13.63;;;9.40;92.40;;;;;;5047553;28;20179;-74
2021/11/23 01:58:48;;;;;;;33.13;14.13;;;9.40;92.60;;;;;;5045906;28;20183;-74
2021/11/23 02:01:13;;;;;;;23.07;12.47;;;9.40;93.10;;;;;;5045143;28;20691;-74
2021/11/23 02:03:40;;;;;;;22.93;11.30;;;9.40;93.40;;;;;;5046863;28;20210;-75
2021/11/23 02:06:07;;;;;;;18.70;10.77;;;9.40;93.30;;;;;;5047035;28;20183;-74
2021/11/23 02:08:33;;;;;;;27.63;14.63;;;9.40;93.30;;;;;;5045710;28;20179;-74
2021/11/23 02:10:59;;;;;;;25.87;14.87;;;9.40;93.40;;;;;;5047014;28;20197;-74
2021/11/23 02:13:28;;;;;;;25.63;15.00;;;9.40;93.90;;;;;;5043685;28;20282;-74
2021/11/23 02:15:57;;;;;;;26.33;15.07;;;9.40;93.80;;;;;;5044247;28;20188;-74
2021/11/23 02:18:23;;;;;;;21.37;12.97;;;9.40;93.70;;;;;;5045416;28;20275;-74
2021/11/23 02:20:50;;;;;;;21.90;14.97;;;9.40;93.80;;;;;;5047622;28;20182;-74
2021/11/23 02:23:17;;;;;;;23.17;14.77;;;9.50;93.60;;;;;;5047320;28;20767;-74
2021/11/23 02:25:43;;;;;;;27.07;14.50;;;9.50;93.90;;;;;;5044748;28;20184;-74
2021/11/23 02:28:10;;;;;;;25.57;13.70;;;9.50;93.60;;;;;;5045979;28;20192;-74
2021/11/23 02:30:45;;;;;;;25.17;14.57;;;9.50;93.70;;;;;;5046358;28;20172;-74
2021/11/23 02:33:13;;;;;;;19.93;13.13;;;9.60;93.00;;;;;;5046228;28;21093;-73
2021/11/23 02:35:39;;;;;;;21.33;13.05;;;9.60;93.10;;;;;;5046570;28;20172;-75
2021/11/23 02:38:04;;;;;;;22.92;12.40;;;9.60;93.40;;;;;;5046123;28;20191;-74
2021/11/23 02:40:30;;;;;;;30.30;15.50;;;9.60;93.30;;;;;;5045460;28;20184;-74
2021/11/23 02:42:57;;;;;;;26.13;16.30;;;9.60;93.50;;;;;;5045813;28;20215;-74
2021/11/23 02:45:26;;;;;;;28.63;14.93;;;9.70;93.70;;;;;;5044530;28;20724;-75
2021/11/23 02:47:53;;;;;;;23.37;14.90;;;9.70;93.30;;;;;;5045568;28;20175;-73
2021/11/23 02:50:19;;;;;;;22.60;12.68;;;9.70;93.50;;;;;;5047080;28;20176;-74
2021/11/23 02:52:48;;;;;;;28.02;15.07;;;9.70;93.50;;;;;;5043955;28;21687;-74
2021/11/23 02:55:15;;;;;;;33.70;15.33;;;9.70;93.60;;;;;;5041870;28;20261;-74
2021/11/23 02:57:41;;;;;;;34.80;19.67;;;9.70;94.40;;;;;;5047120;28;20796;-74
2021/11/23 03:00:16;;;;;;;25.70;15.87;;;9.60;94.70;;;;;;5045221;28;20183;-74
2021/11/23 03:02:42;;;;;;;22.67;14.03;;;9.60;94.50;;;;;;5044102;28;20956;-74
2021/11/23 03:05:08;;;;;;;27.80;14.75;;;9.60;94.10;;;;;;5045872;28;20179;-74
2021/11/23 03:07:34;;;;;;;32.65;16.85;;;9.60;94.30;;;;;;5045867;28;20179;-73
2021/11/23 03:10:01;;;;;;;25.60;15.70;;;9.60;94.10;;;;;;5046184;28;20565;-74
2021/11/23 03:12:26;;;;;;;30.35;16.13;;;9.60;94.60;;;;;;5040847;28;20187;-74
2021/11/23 03:14:52;;;;;;;22.57;12.83;;;9.60;94.50;;;;;;5043961;28;20188;-75
2021/11/23 03:17:19;;;;;;;28.57;17.17;;;9.60;94.50;;;;;;5044823;28;20258;-74
2021/11/23 03:19:47;;;;;;;25.20;15.70;;;9.60;94.30;;;;;;5044550;28;20191;-73
2021/11/23 03:22:13;;;;;;;26.60;14.93;;;9.70;94.10;;;;;;5043386;28;20220;-73
2021/11/23 03:24:40;;;;;;;27.48;12.63;;;9.70;94.20;;;;;;5046123;28;20176;-72
2021/11/23 03:27:07;;;;;;;22.33;14.00;;;9.70;94.40;;;;;;5044203;28;20187;-73
2021/11/23 03:29:34;;;;;;;26.65;16.55;;;9.70;94.40;;;;;;5044813;28;20634;-72
2021/11/23 03:32:00;;;;;;;26.77;15.93;;;9.70;94.50;;;;;;5043603;28;20192;-74
2021/11/23 03:34:26;;;;;;;22.60;13.47;;;9.70;94.50;;;;;;5045763;28;20191;-74
2021/11/23 03:36:52;;;;;;;19.30;12.07;;;9.70;94.60;;;;;;5043457;28;20179;-74
2021/11/23 03:39:18;;;;;;;25.07;14.80;;;9.70;94.90;;;;;;5044074;28;20180;-73
2021/11/23 03:41:44;;;;;;;20.58;14.05;;;9.70;95.10;;;;;;5045253;28;20243;-73
2021/11/23 03:44:10;;;;;;;24.43;14.57;;;9.70;95.40;;;;;;5044749;28;20718;-74
2021/11/23 03:46:36;;;;;;;23.57;13.17;;;9.70;95.50;;;;;;5043106;28;20180;-74
2021/11/23 03:49:02;;;;;;;25.73;15.27;;;9.70;95.10;;;;;;5044505;28;20184;-73
2021/11/23 03:51:27;;;;;;;28.75;13.70;;;9.70;95.30;;;;;;5045004;28;20175;-74
2021/11/23 03:53:53;;;;;;;16.73;11.27;;;9.70;95.60;;;;;;5043352;28;20183;-74
2021/11/23 03:56:19;;;;;;;19.02;11.18;;;9.70;95.70;;;;;;5044510;28;20194;-72
2021/11/23 03:58:45;;;;;;;21.07;11.20;;;9.70;95.30;;;;;;5046172;28;20187;-73
2021/11/23 04:01:11;;;;;;;18.43;10.90;;;9.70;95.10;;;;;;5043832;28;20215;-73
2021/11/23 04:03:37;;;;;;;17.60;11.67;;;9.70;95.10;;;;;;5044753;28;20176;-73
2021/11/23 04:06:04;;;;;;;24.83;11.67;;;9.70;95.00;;;;;;5045411;28;20183;-74
2021/11/23 04:08:31;;;;;;;17.17;11.43;;;9.70;95.10;;;;;;5043838;28;20188;-75
2021/11/23 04:10:57;;;;;;;24.93;11.93;;;9.80;95.10;;;;;;5044826;28;20724;-75
2021/11/23 04:13:23;;;;;;;16.83;11.53;;;9.80;95.40;;;;;;5044953;28;20211;-74
2021/11/23 04:15:49;;;;;;;25.07;13.33;;;9.80;95.20;;;;;;5043541;28;20187;-74
2021/11/23 04:18:15;;;;;;;23.23;13.00;;;9.80;95.40;;;;;;5044123;28;20184;-74
2021/11/23 04:20:40;;;;;;;19.73;11.53;;;9.80;95.30;;;;;;5044481;28;20233;-74
2021/11/23 04:23:07;;;;;;;19.33;11.17;;;9.80;95.30;;;;;;5040456;28;20620;-74
2021/11/23 04:25:33;;;;;;;17.60;10.87;;;9.80;95.50;;;;;;5043667;28;20207;-74
2021/11/23 04:27:59;;;;;;;21.00;10.70;;;9.80;95.50;;;;;;5047031;28;20187;-74
2021/11/23 04:30:25;;;;;;;20.20;12.33;;;9.80;95.30;;;;;;5046816;28;20258;-74
2021/11/23 04:32:51;;;;;;;20.90;12.52;;;9.80;95.50;;;;;;5047222;28;20186;-74
2021/11/23 04:35:17;;;;;;;19.63;11.02;;;9.80;95.70;;;;;;5048559;28;20536;-74
2021/11/23 04:37:43;;;;;;;21.55;11.50;;;9.80;95.90;;;;;;5048397;28;20180;-74
2021/11/23 04:40:12;;;;;;;18.33;10.23;;;9.80;95.70;;;;;;5046900;28;20544;-74
2021/11/23 04:42:38;;;;;;;15.30;9.80;;;9.80;95.90;;;;;;5046491;28;20266;-74
2021/11/23 04:45:06;;;;;;;19.73;10.07;;;9.80;96.10;;;;;;5048065;28;20180;-74
2021/11/23 04:47:32;;;;;;;18.23;10.27;;;9.80;96.20;;;;;;5047626;28;20190;-74
2021/11/23 04:49:58;;;;;;;14.55;10.13;;;9.80;96.10;;;;;;5047671;28;20791;-74
2021/11/23 04:52:24;;;;;;;17.38;11.55;;;9.80;95.90;;;;;;5047826;28;20193;-73
2021/11/23 04:54:50;;;;;;;16.00;10.45;;;9.80;96.10;;;;;;5048485;28;20308;-74
2021/11/23 04:57:16;;;;;;;16.25;11.15;;;9.80;95.90;;;;;;5047454;28;20645;-75
2021/11/23 04:59:42;;;;;;;30.35;12.40;;;9.90;95.60;;;;;;5046172;28;20191;-74
2021/11/23 05:02:08;;;;;;;21.13;13.53;;;9.90;95.50;;;;;;5048503;28;20215;-74
2021/11/23 05:04:35;;;;;;;24.47;14.00;;;9.90;95.50;;;;;;5048235;28;20226;-74
2021/11/23 05:07:01;;;;;;;25.07;13.63;;;9.90;95.50;;;;;;5048127;28;20184;-74
2021/11/23 05:09:28;;;;;;;23.50;14.87;;;9.90;95.40;;;;;;5047227;28;20180;-74
2021/11/23 05:11:54;;;;;;;24.42;15.00;;;9.90;95.40;;;;;;5048640;28;20657;-74
2021/11/23 05:14:22;;;;;;;29.40;16.20;;;10.00;95.40;;;;;;5048317;28;20191;-73
2021/11/23 05:16:48;;;;;;;29.30;17.30;;;10.00;95.30;;;;;;5045781;28;20238;-74
2021/11/23 05:19:14;;;;;;;39.38;19.63;;;10.00;95.40;;;;;;5047316;28;20198;-74
2021/11/23 05:21:40;;;;;;;45.45;24.35;;;10.00;95.50;;;;;;5047837;28;20215;-74
2021/11/23 05:24:06;;;;;;;48.72;23.60;;;10.00;95.70;;;;;;5047297;28;20179;-73
2021/11/23 05:26:32;;;;;;;45.25;24.90;;;9.90;95.60;;;;;;5046142;28;20694;-74
2021/11/23 05:28:58;;;;;;;44.65;25.13;;;9.90;95.60;;;;;;5045773;28;20183;-73
2021/11/23 05:31:23;;;;;;;55.95;26.65;;;9.90;95.60;;;;;;5047482;28;20192;-73
2021/11/23 05:33:49;;;;;;;50.50;25.63;;;9.90;95.50;;;;;;5046417;28;20241;-74
2021/11/23 05:36:15;;;;;;;53.90;27.75;;;9.90;95.30;;;;;;5046392;28;20218;-74
2021/11/23 05:38:40;;;;;;;57.17;27.92;;;10.00;95.90;;;;;;5045141;28;20179;-74
2021/11/23 05:41:06;;;;;;;55.17;29.70;;;9.90;95.60;;;;;;5044996;28;20187;-74
2021/11/23 05:43:32;;;;;;;64.82;30.65;;;9.90;95.90;;;;;;5047206;28;20180;-73
2021/11/23 05:45:58;;;;;;;44.80;25.70;;;9.90;95.60;;;;;;5042427;28;20198;-72
2021/11/23 05:48:24;;;;;;;32.30;18.17;;;9.90;95.70;;;;;;5046021;28;20305;-74
2021/11/23 05:50:50;;;;;;;29.93;16.97;;;9.90;96.20;;;;;;5050648;28;20179;-76
2021/11/23 05:53:16;;;;;;;23.20;13.95;;;9.90;96.80;;;;;;5048467;28;20267;-72
2021/11/23 05:55:42;;;;;;;22.30;12.97;;;9.80;96.90;;;;;;5046501;28;20190;-73
2021/11/23 05:58:08;;;;;;;21.90;12.77;;;9.80;97.60;;;;;;5044492;28;20184;-72
2021/11/23 06:00:34;;;;;;;24.40;13.30;;;9.70;97.70;;;;;;5043664;28;20262;-72
2021/11/23 06:03:00;;;;;;;26.70;13.27;;;9.70;97.90;;;;;;5044352;28;20221;-72
2021/11/23 06:05:27;;;;;;;23.60;13.45;;;9.70;98.10;;;;;;5045775;28;20681;-73
2021/11/23 06:07:52;;;;;;;18.03;12.97;;;9.70;98.50;;;;;;5043757;28;20180;-73
2021/11/23 06:10:18;;;;;;;16.80;10.68;;;9.70;98.50;;;;;;5045932;28;20730;-73
2021/11/23 06:12:44;;;;;;;21.80;12.07;;;9.60;98.50;;;;;;5042976;28;20202;-74
2021/11/23 06:15:11;;;;;;;15.43;10.18;;;9.60;98.50;;;;;;5045756;28;20629;-73
2021/11/23 06:17:37;;;;;;;18.13;10.03;;;9.60;98.50;;;;;;5046248;28;20258;-75
2021/11/23 06:20:05;;;;;;;12.40;8.57;;;9.60;98.50;;;;;;5045192;28;20182;-75
2021/11/23 06:22:33;;;;;;;17.33;9.70;;;9.60;98.50;;;;;;5044522;28;20211;-75
2021/11/23 06:24:58;;;;;;;11.65;8.48;;;9.60;98.50;;;;;;5046767;28;20176;-75
2021/11/23 06:27:24;;;;;;;11.15;8.07;;;9.60;98.50;;;;;;5044261;28;20191;-74
2021/11/23 06:29:50;;;;;;;11.27;7.13;;;9.50;98.50;;;;;;5045077;28;20659;-73
2021/11/23 06:32:17;;;;;;;11.38;8.35;;;9.50;98.50;;;;;;5045011;28;20295;-72
2021/11/23 06:34:43;;;;;;;12.57;8.63;;;9.60;98.50;;;;;;5042428;28;20176;-74
2021/11/23 06:37:09;;;;;;;10.60;7.15;;;9.60;98.50;;;;;;5044235;28;20180;-74
2021/11/23 06:39:34;;;;;;;13.93;6.50;;;9.50;98.50;;;;;;5041737;28;20210;-72
2021/11/23 06:42:00;;;;;;;8.20;5.63;;;9.60;98.50;;;;;;5042116;28;20219;-74
2021/11/23 06:44:26;;;;;;;6.57;5.23;;;9.50;98.50;;;;;;5045167;28;20665;-74
2021/11/23 06:46:51;;;;;;;6.67;4.83;;;9.50;98.50;;;;;;5041378;28;20180;-75
2021/11/23 06:49:18;;;;;;;5.70;5.07;;;9.50;98.50;;;;;;5048459;28;20723;-74
2021/11/23 06:51:44;;;;;;;4.73;4.33;;;9.50;98.50;;;;;;5044405;28;20182;-75
2021/11/23 06:54:10;;;;;;;4.57;3.90;;;9.50;98.50;;;;;;5045651;28;20183;-75
2021/11/23 06:56:37;;;;;;;4.10;3.73;;;9.60;98.50;;;;;;5044743;28;20211;-75
2021/11/23 06:59:03;;;;;;;4.55;4.15;;;9.60;98.50;;;;;;5045290;28;20591;-75
2021/11/23 07:01:30;;;;;;;5.03;4.47;;;9.60;98.50;;;;;;5045503;28;20266;-75
2021/11/23 07:03:55;;;;;;;3.77;3.47;;;9.60;98.50;;;;;;5045481;28;20688;-75
2021/11/23 07:06:21;;;;;;;3.50;3.20;;;9.60;98.50;;;;;;5045389;28;20179;-74
2021/11/23 07:08:47;;;;;;;2.97;2.77;;;9.60;98.50;;;;;;5044875;28;20179;-75
2021/11/23 07:11:13;;;;;;;2.80;2.70;;;9.60;98.30;;;;;;5044829;28;20199;-75
2021/11/23 07:13:39;;;;;;;3.17;2.97;;;9.60;98.10;;;;;;5045059;28;20595;-75
2021/11/23 07:16:05;;;;;;;2.97;2.77;;;9.60;98.00;;;;;;5044768;28;20188;-75
2021/11/23 07:18:31;;;;;;;2.80;2.60;;;9.60;98.00;;;;;;5043762;28;20600;-75
2021/11/23 07:20:57;;;;;;;3.60;3.33;;;9.70;98.10;;;;;;5043847;28;20172;-75
2021/11/23 07:23:24;;;;;;;3.70;3.40;;;9.70;97.90;;;;;;5043710;28;20199;-75
2021/11/23 07:25:50;;;;;;;2.70;2.50;;;9.70;97.90;;;;;;5046102;28;20223;-75
2021/11/23 07:28:16;;;;;;;1.87;1.77;;;9.70;97.80;;;;;;5045924;28;20206;-75
2021/11/23 07:30:42;;;;;;;1.80;1.80;;;9.60;97.60;;;;;;5043557;28;20183;-75
2021/11/23 07:33:08;;;;;;;1.60;1.50;;;9.60;97.60;;;;;;5045355;28;20188;-75
2021/11/23 07:35:33;;;;;;;2.00;1.90;;;9.60;97.50;;;;;;5044886;28;20192;-74
2021/11/23 07:37:59;;;;;;;2.20;2.10;;;9.60;97.30;;;;;;5044833;28;20176;-74
2021/11/23 07:40:26;;;;;;;2.03;1.97;;;9.50;97.40;;;;;;5046576;28;20187;-74
2021/11/23 07:42:51;;;;;;;1.83;1.83;;;9.40;97.10;;;;;;5045730;28;20211;-75
2021/11/23 07:45:18;;;;;;;1.88;1.83;;;9.40;97.30;;;;;;5045276;28;20889;-75
2021/11/23 07:47:44;;;;;;;2.50;2.03;;;9.40;97.40;;;;;;5044997;28;20176;-75
2021/11/23 07:50:10;;;;;;;2.05;1.95;;;9.40;97.50;;;;;;5044422;28;20190;-75
2021/11/23 07:52:36;;;;;;;1.50;1.40;;;9.40;97.50;;;;;;5043604;28;20183;-74
2021/11/23 07:55:03;;;;;;;2.10;2.00;;;9.40;97.40;;;;;;5043706;28;20340;-75
2021/11/23 07:57:29;;;;;;;1.70;1.70;;;9.40;97.50;;;;;;5045327;28;20622;-75
2021/11/23 07:59:55;;;;;;;2.05;2.00;;;9.40;97.00;;;;;;5044838;28;20279;-75
2021/11/23 08:02:20;;;;;;;1.53;1.53;;;9.30;96.90;;;;;;5048148;28;20211;-74
2021/11/23 08:04:46;;;;;;;1.60;1.60;;;9.30;97.10;;;;;;5044484;28;20631;-75
2021/11/23 08:07:12;;;;;;;1.50;1.50;;;9.20;97.10;;;;;;5045159;28;20205;-74
2021/11/23 08:09:38;;;;;;;2.40;2.30;;;9.20;97.10;;;;;;5046487;28;20194;-75
2021/11/23 08:12:04;;;;;;;2.10;2.00;;;9.20;97.30;;;;;;5046555;28;21122;-75
2021/11/23 08:14:29;;;;;;;2.50;2.40;;;9.20;97.30;;;;;;5048790;28;20211;-74
2021/11/23 08:16:56;;;;;;;2.10;2.00;;;9.10;97.30;;;;;;5047083;28;20810;-75
2021/11/23 08:19:22;;;;;;;2.20;2.10;;;9.10;97.30;;;;;;5047275;28;20188;-75
2021/11/23 08:21:49;;;;;;;2.17;2.00;;;9.10;97.30;;;;;;5046601;28;20214;-74
2021/11/23 08:24:15;;;;;;;2.40;2.40;;;9.10;97.50;;;;;;5048064;28;20187;-75
2021/11/23 08:26:41;;;;;;;1.93;1.87;;;9.10;97.50;;;;;;5048712;28;20673;-75
2021/11/23 08:29:07;;;;;;;2.90;2.80;;;9.00;97.60;;;;;;5047681;28;20191;-75
2021/11/23 08:31:35;;;;;;;3.23;3.03;;;9.00;97.70;;;;;;5047612;28;20728;-74
2021/11/23 08:34:04;;;;;;;3.27;3.13;;;9.00;97.90;;;;;;5047381;28;20195;-74
2021/11/23 08:36:31;;;;;;;4.27;3.97;;;8.90;97.90;;;;;;5047226;28;20179;-75
2021/11/23 08:38:56;;;;;;;4.90;4.50;;;8.90;97.90;;;;;;5046962;28;20180;-74
2021/11/23 08:41:22;;;;;;;6.47;5.37;;;8.90;97.90;;;;;;5047935;28;20314;-75
2021/11/23 08:43:48;;;;;;;6.07;5.53;;;8.90;98.10;;;;;;5046864;28;20190;-75
2021/11/23 08:46:13;;;;;;;5.72;4.90;;;8.90;98.10;;;;;;5047825;28;20190;-75
2021/11/23 08:48:39;;;;;;;5.97;5.43;;;8.90;98.10;;;;;;5046628;28;20178;-74
2021/11/23 08:51:09;;;;;;;10.43;5.43;;;8.90;98.20;;;;;;5047593;28;20197;-74
2021/11/23 08:53:35;;;;;;;5.50;5.00;;;8.90;98.30;;;;;;5047036;28;20207;-74
2021/11/23 08:56:00;;;;;;;5.67;5.17;;;9.00;98.20;;;;;;5047892;28;20249;-74
2021/11/23 08:58:26;;;;;;;5.53;5.00;;;8.90;98.10;;;;;;5046836;28;20182;-74
2021/11/23 09:00:52;;;;;;;4.73;4.30;;;8.90;97.90;;;;;;5045209;28;20208;-74
2021/11/23 09:03:17;;;;;;;6.60;5.90;;;9.00;98.00;;;;;;5047047;28;20218;-75
2021/11/23 09:05:44;;;;;;;7.43;6.73;;;9.00;98.00;;;;;;5046677;28;20211;-75
2021/11/23 09:08:10;;;;;;;6.43;5.80;;;9.00;98.00;;;;;;5046556;28;20186;-74
2021/11/23 09:10:39;;;;;;;8.57;5.77;;;9.00;97.90;;;;;;5047922;28;20187;-75
2021/11/23 09:13:05;;;;;;;9.27;5.73;;;9.00;97.50;;;;;;5045666;28;20188;-75
2021/11/23 09:15:31;;;;;;;4.97;4.53;;;8.90;97.50;;;;;;5046387;28;20179;-75
2021/11/23 09:18:00;;;;;;;4.37;3.97;;;8.90;97.60;;;;;;5045841;28;20175;-74
2021/11/23 09:20:33;;;;;;;5.33;4.43;;;8.90;97.50;;;;;;5045744;28;20183;-75
2021/11/23 09:23:01;;;;;;;5.53;4.90;;;8.90;97.60;;;;;;5046027;28;20219;-75
2021/11/23 09:25:27;;;;;;;6.00;5.30;;;8.90;97.70;;;;;;5047195;28;20267;-75
2021/11/23 09:27:53;;;;;;;5.17;4.33;;;8.90;97.80;;;;;;5045794;28;20614;-75
2021/11/23 09:30:18;;;;;;;7.10;4.83;;;8.90;97.50;;;;;;5047563;28;20221;-75
2021/11/23 09:32:48;;;;;;;4.27;4.00;;;9.00;97.50;;;;;;5046213;28;20673;-74
2021/11/23 09:35:14;;;;;;;4.63;4.23;;;9.00;97.40;;;;;;5045039;28;20183;-74
2021/11/23 09:37:41;;;;;;;5.10;4.60;;;9.00;97.30;;;;;;5045618;28;20190;-74
2021/11/23 09:40:07;;;;;;;6.07;4.90;;;9.10;97.40;;;;;;5045996;28;20183;-74
2021/11/23 09:42:33;;;;;;;4.60;4.13;;;9.00;96.90;;;;;;5046343;28;20215;-75
2021/11/23 09:44:58;;;;;;;4.07;3.77;;;9.10;97.00;;;;;;5044547;28;20184;-74
2021/11/23 09:47:27;;;;;;;6.47;4.73;;;9.10;96.90;;;;;;5044516;28;20183;-75
2021/11/23 09:49:55;;;;;;;4.77;4.37;;;9.10;96.70;;;;;;5045849;28;20175;-75
2021/11/23 09:52:21;;;;;;;6.90;4.27;;;9.10;96.90;;;;;;5045768;28;20238;-75
2021/11/23 09:54:47;;;;;;;4.07;3.77;;;9.10;96.90;;;;;;5044897;28;20180;-75
2021/11/23 09:57:12;;;;;;;6.17;5.43;;;9.10;97.00;;;;;;5045208;28;20183;-75
2021/11/23 09:59:38;;;;;;;5.17;4.73;;;9.10;97.00;;;;;;5043765;28;20559;-75
2021/11/23 10:02:04;;;;;;;5.10;4.60;;;9.10;97.00;;;;;;5045508;28;20211;-75
2021/11/23 10:04:31;;;;;;;4.70;4.37;;;9.10;96.80;;;;;;5045236;28;20187;-75
2021/11/23 10:07:03;;;;;;;5.23;4.73;;;9.10;96.60;;;;;;5046429;28;20172;-74
2021/11/23 10:09:40;;;;;;;4.27;3.97;;;9.20;96.60;;;;;;5045206;28;20191;-74
2021/11/23 10:12:24;;;;;;;4.83;3.57;;;9.20;96.40;;;;;;5045579;28;20187;-74
2021/11/23 10:15:14;;;;;;;4.63;4.23;;;9.20;96.10;;;;;;5045552;28;20951;-74
2021/11/23 10:17:48;;;;;;;6.17;4.97;;;9.10;96.00;;;;;;5046279;28;20180;-75
2021/11/23 10:20:52;;;;;;;4.63;4.23;;;9.10;96.20;;;;;;5044768;28;20171;-75
2021/11/23 10:23:31;;;;;;;5.57;5.00;;;9.10;96.40;;;;;;5044448;28;20204;-75
2021/11/23 10:26:05;;;;;;;5.63;4.67;;;9.10;96.50;;;;;;5044004;28;20224;-75
2021/11/23 10:28:32;;;;;;;5.03;4.37;;;9.00;96.50;;;;;;5046397;28;20171;-75
2021/11/23 10:31:01;;;;;;;7.00;4.63;;;9.00;96.60;;;;;;5044100;28;20661;-75
2021/11/23 10:33:29;;;;;;;5.23;4.73;;;9.00;96.60;;;;;;5044840;28;20285;-75
2021/11/23 10:35:58;;;;;;;4.93;4.60;;;9.00;96.50;;;;;;5042288;28;20213;-74
2021/11/23 10:38:30;;;;;;;8.87;4.57;;;8.90;96.40;;;;;;5044511;28;20194;-75
2021/11/23 10:40:56;;;;;;;5.13;4.50;;;8.90;96.40;;;;;;5041869;28;20183;-74
2021/11/23 10:43:23;;;;;;;5.10;4.60;;;8.90;96.40;;;;;;5045671;28;20290;-74
2021/11/23 10:45:51;;;;;;;5.90;5.23;;;8.80;96.60;;;;;;5044732;28;20180;-74
2021/11/23 10:48:19;;;;;;;4.67;4.27;;;8.90;96.70;;;;;;5044885;28;20184;-73
2021/11/23 10:51:08;;;;;;;6.40;4.40;;;8.90;96.60;;;;;;5046162;28;20184;-74
2021/11/23 10:53:35;;;;;;;4.70;4.40;;;8.90;96.30;;;;;;5046348;28;20191;-75
2021/11/23 10:56:07;;;;;;;4.77;4.33;;;8.90;96.10;;;;;;5045354;28;20176;-75
2021/11/23 10:58:33;;;;;;;5.90;5.37;;;8.90;96.10;;;;;;5045775;28;20182;-75
2021/11/23 11:01:00;;;;;;;6.10;4.90;;;8.90;96.00;;;;;;5044842;28;20187;-74
2021/11/23 11:03:30;;;;;;;4.90;4.53;;;8.90;96.30;;;;;;5044270;28;20215;-75
2021/11/23 11:05:57;;;;;;;5.40;4.80;;;8.90;95.90;;;;;;5044301;28;20179;-75
2021/11/23 11:08:26;;;;;;;5.63;5.20;;;8.90;96.00;;;;;;5044261;28;20179;-74
2021/11/23 11:10:54;;;;;;;6.20;5.10;;;8.90;96.00;;;;;;5043800;28;20207;-75
2021/11/23 11:13:22;;;;;;;4.80;4.40;;;8.90;96.00;;;;;;5045725;28;20191;-74
2021/11/23 11:15:56;;;;;;;6.43;5.20;;;8.90;95.90;;;;;;5045599;28;20175;-75
2021/11/23 11:18:23;;;;;;;4.77;4.30;;;8.90;95.90;;;;;;5043872;28;20213;-74
2021/11/23 11:21:00;;;;;;;5.53;4.97;;;8.90;95.80;;;;;;5044333;28;20822;-74
2021/11/23 11:23:28;;;;;;;5.73;4.40;;;8.90;95.70;;;;;;5043604;28;20257;-75
2021/11/23 11:26:24;;;;;;;4.70;4.40;;;8.80;95.50;;;;;;5042440;28;20194;-74
2021/11/23 11:28:59;;;;;;;7.33;4.30;;;8.80;95.70;;;;;;5044969;28;20180;-75
2021/11/23 11:31:44;;;;;;;4.60;4.30;;;8.80;95.80;;;;;;5046623;28;20175;-75
2021/11/23 11:34:25;;;;;;;3.97;3.73;;;8.80;95.90;;;;;;5044807;28;20274;-74
2021/11/23 11:37:11;;;;;;;4.37;4.07;;;8.80;95.60;;;;;;5041924;28;20196;-73
2021/11/23 11:39:40;;;;;;;4.67;4.37;;;8.70;95.60;;;;;;5045701;28;20224;-73
2021/11/23 11:42:29;;;;;;;7.40;4.37;;;8.80;95.70;;;;;;5044721;28;20796;-73
2021/11/23 11:44:55;;;;;;;4.90;4.53;;;8.80;95.70;;;;;;5044461;28;20183;-76
2021/11/23 11:47:32;;;;;;;4.50;4.10;;;8.80;95.50;;;;;;5044390;28;20182;-75
2021/11/23 11:50:03;;;;;;;4.80;4.40;;;8.90;95.30;;;;;;5043983;28;20255;-75
2021/11/23 11:52:54;;;;;;;6.63;4.20;;;8.90;94.90;;;;;;5044244;28;20187;-75
2021/11/23 11:55:25;;;;;;;3.97;3.67;;;8.90;95.10;;;;;;5042944;28;20179;-75
2021/11/23 11:57:55;;;;;;;4.43;4.13;;;8.90;94.90;;;;;;5042709;28;20179;-76
2021/11/23 12:00:33;;;;;;;4.93;4.53;;;8.90;94.70;;;;;;5044616;28;20206;-75
2021/11/23 12:03:08;;;;;;;5.97;4.97;;;8.90;94.60;;;;;;5044986;28;20308;-75
2021/11/23 12:05:56;;;;;;;5.00;4.60;;;9.00;94.50;;;;;;5041927;28;20268;-75
2021/11/23 12:08:33;;;;;;;4.23;3.83;;;9.00;94.10;;;;;;5042840;28;20195;-75
2021/11/23 12:11:00;;;;;;;5.30;3.80;;;9.00;94.20;;;;;;5054702;28;20210;-72
2021/11/23 12:13:32;;;;;;;4.13;3.90;;;9.00;94.20;;;;;;5044314;28;20679;-75
2021/11/23 12:16:37;;;;;;;3.80;3.60;;;8.90;93.90;;;;;;5040063;28;20662;-75
2021/11/23 12:19:40;;;;;;;3.67;3.37;;;8.90;93.80;;;;;;5040350;28;20321;-75
2021/11/23 12:22:22;;;;;;;3.77;3.47;;;8.80;93.80;;;;;;5041955;28;20211;-75
2021/11/23 12:24:53;;;;;;;3.30;3.10;;;8.80;93.80;;;;;;5042907;28;20191;-75
2021/11/23 12:27:19;;;;;;;2.93;2.83;;;8.70;93.70;;;;;;5044390;28;20345;-75
2021/11/23 12:29:54;;;;;;;3.93;3.60;;;8.70;93.90;;;;;;5043258;28;20176;-74
2021/11/23 12:32:37;;;;;;;3.90;3.50;;;8.60;93.90;;;;;;5043145;28;20187;-74
2021/11/23 12:35:06;;;;;;;3.10;2.87;;;8.50;94.10;;;;;;5043958;28;20275;-74
2021/11/23 12:37:34;;;;;;;8.87;2.93;;;8.40;94.20;;;;;;5045041;28;20736;-74
2021/11/23 12:40:18;;;;;;;3.37;3.20;;;8.30;94.50;;;;;;5045552;28;20229;-75
2021/11/23 12:42:53;;;;;;;4.60;4.20;;;8.30;94.60;;;;;;5043631;28;20207;-74
2021/11/23 12:45:36;;;;;;;4.37;3.93;;;8.30;94.70;;;;;;5044550;28;20183;-75
2021/11/23 12:48:06;;;;;;;3.83;3.47;;;8.30;94.80;;;;;;5044457;28;20175;-75
2021/11/23 12:50:33;;;;;;;4.43;4.00;;;8.30;94.70;;;;;;5047455;28;20222;-74